createdAt,value
2023-05-02T00:02:25.765Z,55.73
2023-05-02T00:04:53.516Z,55.78
2023-05-02T00:07:21.420Z,55.75
2023-05-02T00:09:48.948Z,55.50
2023-05-02T00:12:16.529Z,55.59
2023-05-02T00:14:44.051Z,55.85
2023-05-02T00:17:20.504Z,55.69
2023-05-02T00:19:48.453Z,55.67
2023-05-02T00:22:15.988Z,55.78
2023-05-02T00:24:43.576Z,56.11
2023-05-02T00:27:11.721Z,56.01
2023-05-02T00:29:39.196Z,56.04
2023-05-02T00:32:07.020Z,56.20
2023-05-02T00:34:34.564Z,56.15
2023-05-02T00:37:02.097Z,56.36
2023-05-02T00:39:29.686Z,56.19
2023-05-02T00:41:58.854Z,56.23
2023-05-02T00:44:26.578Z,56.29
2023-05-02T00:46:55.772Z,56.54
2023-05-02T00:49:23.320Z,56.54
2023-05-02T00:51:50.967Z,56.39
2023-05-02T00:54:18.793Z,56.34
2023-05-02T00:56:47.004Z,56.47
2023-05-02T00:59:15.518Z,56.74
2023-05-02T01:02:12.929Z,56.63
2023-05-02T01:05:04.959Z,56.93
2023-05-02T01:07:47.082Z,56.73
2023-05-02T01:11:12.077Z,56.96
2023-05-02T01:13:42.385Z,56.94
2023-05-02T01:16:13.123Z,56.89
2023-05-02T01:18:43.768Z,57.25
2023-05-02T01:21:12.261Z,57.15
2023-05-02T01:24:16.738Z,56.85
2023-05-02T01:27:18.883Z,56.85
2023-05-02T01:29:49.772Z,56.76
2023-05-02T01:32:21.891Z,56.52
2023-05-02T01:34:52.281Z,56.47
2023-05-02T01:37:21.532Z,56.83
2023-05-02T01:39:51.165Z,56.89
2023-05-02T01:42:21.110Z,56.88
2023-05-02T01:44:50.465Z,57.06
2023-05-02T01:47:19.812Z,57.31
2023-05-02T01:49:48.215Z,57.46
2023-05-02T01:52:16.725Z,57.31
2023-05-02T01:54:45.357Z,57.13
2023-05-02T01:57:14.157Z,57.29
2023-05-02T01:59:44.716Z,57.34
2023-05-02T02:02:14.276Z,57.51
2023-05-02T02:04:44.012Z,57.51
2023-05-02T02:07:14.059Z,57.29
2023-05-02T02:09:41.965Z,57.45
2023-05-02T02:12:42.142Z,57.29
2023-05-02T02:15:27.604Z,57.30
2023-05-02T02:18:09.880Z,57.37
2023-05-02T02:20:39.080Z,57.39
2023-05-02T02:23:08.705Z,57.30
2023-05-02T02:25:37.474Z,57.64
2023-05-02T02:28:06.059Z,58.01
2023-05-02T02:30:34.521Z,57.79
2023-05-02T02:33:02.123Z,57.51
2023-05-02T02:35:37.589Z,57.82
2023-05-02T02:38:23.233Z,58.25
2023-05-02T02:40:59.752Z,57.81
2023-05-02T02:43:48.253Z,57.94
2023-05-02T02:46:43.779Z,57.74
2023-05-02T02:49:49.756Z,58.19
2023-05-02T02:52:48.242Z,57.95
2023-05-02T02:55:54.600Z,58.45
2023-05-02T02:58:39.551Z,58.24
2023-05-02T03:01:14.810Z,58.13
2023-05-02T03:03:44.344Z,58.61
2023-05-02T03:06:12.166Z,58.58
2023-05-02T03:08:41.434Z,58.56
2023-05-02T03:11:12.316Z,58.14
2023-05-02T03:13:40.279Z,58.43
2023-05-02T03:16:23.240Z,58.56
2023-05-02T03:18:50.757Z,58.60
2023-05-02T03:21:18.346Z,58.83
2023-05-02T03:23:45.912Z,58.88
2023-05-02T03:26:13.618Z,59.06
2023-05-02T03:28:41.947Z,58.64
2023-05-02T03:31:09.573Z,58.74
2023-05-02T03:33:40.016Z,58.41
2023-05-02T03:36:07.818Z,58.24
2023-05-02T03:38:35.417Z,58.45
2023-05-02T03:41:07.665Z,58.37
2023-05-02T03:43:35.685Z,58.57
2023-05-02T03:46:09.131Z,59.05
2023-05-02T03:48:40.050Z,58.88
2023-05-02T03:51:09.504Z,58.81
2023-05-02T03:53:42.679Z,58.62
2023-05-02T03:56:10.885Z,58.50
2023-05-02T03:58:49.215Z,59.19
2023-05-02T04:01:20.394Z,59.06
2023-05-02T04:03:52.033Z,59.65
2023-05-02T04:06:22.461Z,58.97
2023-05-02T04:08:58.454Z,59.72
2023-05-02T04:11:28.603Z,59.22
2023-05-02T04:13:56.396Z,59.63
2023-05-02T04:16:24.921Z,59.52
2023-05-02T04:18:52.486Z,59.20
2023-05-02T04:21:20.672Z,58.72
2023-05-02T04:23:48.761Z,58.61
2023-05-02T04:26:16.926Z,58.72
2023-05-02T04:28:53.990Z,58.83
2023-05-02T04:31:21.568Z,58.66
2023-05-02T04:33:49.232Z,58.95
2023-05-02T04:36:22.870Z,58.49
2023-05-02T04:38:50.922Z,58.39
2023-05-02T04:41:19.645Z,58.50
2023-05-02T04:43:53.289Z,58.07
2023-05-02T04:46:20.885Z,58.12
2023-05-02T04:48:48.554Z,57.89
2023-05-02T04:51:17.192Z,57.49
2023-05-02T04:53:47.417Z,57.68
2023-05-02T04:56:15.685Z,58.36
2023-05-02T04:58:43.602Z,58.07
2023-05-02T05:01:13.005Z,57.84
2023-05-02T05:03:41.483Z,58.20
2023-05-02T05:06:10.789Z,58.38
2023-05-02T05:08:38.544Z,58.51
2023-05-02T05:11:06.530Z,58.34
2023-05-02T05:13:34.566Z,58.05
2023-05-02T05:16:02.854Z,58.02
2023-05-02T05:18:40.186Z,57.96
2023-05-02T05:21:10.571Z,57.87
2023-05-02T05:23:38.613Z,58.24
2023-05-02T05:26:17.377Z,58.41
2023-05-02T05:28:48.191Z,58.17
2023-05-02T05:31:17.123Z,58.38
2023-05-02T05:33:48.354Z,58.55
2023-05-02T05:36:17.152Z,57.80
2023-05-02T05:38:44.900Z,58.17
2023-05-02T05:41:12.552Z,58.14
2023-05-02T05:43:44.792Z,57.87
2023-05-02T05:46:12.758Z,58.00
2023-05-02T05:48:40.259Z,57.69
2023-05-02T05:51:07.868Z,58.17
2023-05-02T05:53:35.663Z,58.17
2023-05-02T05:56:13.276Z,58.49
2023-05-02T05:58:46.668Z,57.99
2023-05-02T06:01:15.300Z,57.30
2023-05-02T06:03:43.072Z,57.31
2023-05-02T06:06:10.854Z,57.74
2023-05-02T06:08:38.435Z,57.56
2023-05-02T06:11:12.101Z,57.96
2023-05-02T06:13:39.689Z,57.40
2023-05-02T06:16:08.571Z,57.16
2023-05-02T06:18:36.164Z,56.70
2023-05-02T06:21:05.657Z,56.97
2023-05-02T06:23:33.265Z,57.11
2023-05-02T06:26:03.025Z,57.38
2023-05-02T06:28:31.760Z,57.39
2023-05-02T06:31:04.544Z,57.27
2023-05-02T06:33:33.683Z,57.54
2023-05-02T06:36:02.148Z,57.70
2023-05-02T06:38:30.186Z,57.35
2023-05-02T06:40:57.726Z,57.79
2023-05-02T06:43:25.319Z,57.26
2023-05-02T06:45:54.943Z,57.20
2023-05-02T06:48:22.941Z,56.81
2023-05-02T06:50:53.870Z,57.18
2023-05-02T06:53:21.471Z,56.81
2023-05-02T06:55:49.633Z,57.01
2023-05-02T06:58:17.220Z,57.05
2023-05-02T07:00:44.778Z,56.99
2023-05-02T07:03:12.676Z,57.45
2023-05-02T07:05:40.307Z,57.68
2023-05-02T07:08:09.062Z,57.15
2023-05-02T07:10:37.278Z,57.18
2023-05-02T07:13:04.805Z,57.12
2023-05-02T07:15:32.351Z,57.46
2023-05-02T07:17:59.953Z,57.05
2023-05-02T07:20:27.486Z,57.54
2023-05-02T07:22:55.011Z,57.51
2023-05-02T07:25:22.528Z,57.32
2023-05-02T07:27:50.014Z,57.59
2023-05-02T07:30:17.563Z,59.23
2023-05-02T07:32:45.398Z,58.29
2023-05-02T07:35:12.980Z,57.52
2023-05-02T07:37:40.663Z,57.07
2023-05-02T07:40:09.439Z,57.15
2023-05-02T07:42:37.091Z,57.99
2023-05-02T07:45:05.145Z,58.33
2023-05-02T07:47:32.675Z,57.74
2023-05-02T07:50:00.724Z,57.25
2023-05-02T07:52:28.465Z,56.99
2023-05-02T07:54:56.297Z,57.83
2023-05-02T07:57:24.017Z,57.57
2023-05-02T07:59:51.976Z,56.86
2023-05-02T08:02:20.711Z,57.32
2023-05-02T08:04:49.072Z,57.60
2023-05-02T08:07:17.015Z,56.60
2023-05-02T08:09:44.690Z,56.67
2023-05-02T08:12:12.237Z,57.10
2023-05-02T08:14:40.799Z,56.51
2023-05-02T08:17:08.316Z,56.02
2023-05-02T08:19:35.920Z,56.30
2023-05-02T08:22:03.502Z,56.37
2023-05-02T08:24:31.341Z,56.11
2023-05-02T08:26:58.844Z,55.73
2023-05-02T08:29:26.341Z,56.02
2023-05-02T08:31:53.864Z,55.68
2023-05-02T08:34:21.416Z,55.90
2023-05-02T08:36:48.919Z,55.89
2023-05-02T08:39:17.047Z,55.43
2023-05-02T08:41:44.909Z,55.23
2023-05-02T08:44:12.567Z,55.96
2023-05-02T08:46:43.378Z,56.06
2023-05-02T08:49:11.862Z,56.73
2023-05-02T08:51:42.340Z,56.19
2023-05-02T08:54:10.610Z,56.79
2023-05-02T08:56:38.744Z,56.33
2023-05-02T08:59:07.268Z,56.05
2023-05-02T09:01:36.141Z,55.75
2023-05-02T09:04:04.786Z,55.56
2023-05-02T09:06:32.831Z,55.01
2023-05-02T09:09:01.033Z,55.02
2023-05-02T09:11:29.355Z,55.10
2023-05-02T09:13:58.972Z,55.14
2023-05-02T09:16:28.458Z,55.20
2023-05-02T09:18:58.665Z,54.63
2023-05-02T09:21:40.122Z,54.74
2023-05-02T09:24:21.975Z,54.44
2023-05-02T09:27:00.954Z,54.47
2023-05-02T09:29:36.024Z,53.73
2023-05-02T09:32:06.088Z,52.97
2023-05-02T09:34:34.367Z,51.81
2023-05-02T09:37:03.858Z,51.99
2023-05-02T09:39:31.544Z,52.33
2023-05-02T09:41:59.840Z,52.18
2023-05-02T09:44:37.552Z,51.50
2023-05-02T09:47:06.720Z,51.80
2023-05-02T09:49:46.120Z,52.17
2023-05-02T09:52:23.408Z,51.45
2023-05-02T09:54:52.537Z,50.53
2023-05-02T09:57:20.519Z,50.30
2023-05-02T09:59:58.827Z,50.43
2023-05-02T10:02:30.119Z,50.40
2023-05-02T10:04:58.953Z,49.93
2023-05-02T10:07:27.479Z,50.17
2023-05-02T10:09:58.383Z,49.48
2023-05-02T10:12:30.607Z,49.27
2023-05-02T10:15:03.895Z,49.18
2023-05-02T10:17:34.051Z,48.29
2023-05-02T10:20:05.611Z,47.50
2023-05-02T10:22:36.833Z,46.94
2023-05-02T10:25:04.994Z,46.94
2023-05-02T10:27:33.346Z,47.11
2023-05-02T10:30:04.255Z,47.54
2023-05-02T10:32:34.550Z,46.74
2023-05-02T10:35:07.045Z,46.15
2023-05-02T10:37:38.285Z,47.56
2023-05-02T10:40:14.558Z,47.57
2023-05-02T10:42:47.839Z,46.34
2023-05-02T10:45:35.808Z,47.33
2023-05-02T10:48:27.321Z,47.41
2023-05-02T10:51:01.641Z,46.81
2023-05-02T10:53:38.911Z,47.01
2023-05-02T10:56:18.023Z,46.18
2023-05-02T10:58:48.815Z,45.78
2023-05-02T11:01:28.494Z,46.34
2023-05-02T11:04:01.051Z,46.42
2023-05-02T11:06:31.082Z,46.73
2023-05-02T11:09:17.581Z,46.11
2023-05-02T11:11:46.158Z,46.09
2023-05-02T11:14:39.273Z,46.30
2023-05-02T11:17:10.882Z,46.47
2023-05-02T11:19:38.334Z,46.59
2023-05-02T11:22:18.973Z,45.29
2023-05-02T11:24:48.384Z,44.24
2023-05-02T11:27:31.254Z,44.55
2023-05-02T11:29:59.524Z,44.40
2023-05-02T11:32:49.225Z,44.34
2023-05-02T11:35:26.031Z,43.69
2023-05-02T11:38:05.085Z,44.50
2023-05-02T11:40:32.836Z,44.83
2023-05-02T11:43:01.309Z,45.03
2023-05-02T11:45:39.221Z,45.67
2023-05-02T11:48:08.670Z,44.97
2023-05-02T11:50:50.335Z,44.15
2023-05-02T11:53:29.241Z,44.90
2023-05-02T11:56:02.557Z,44.80
2023-05-02T11:58:34.844Z,44.60
2023-05-02T12:01:16.340Z,44.81
2023-05-02T12:03:45.064Z,44.18
2023-05-02T12:06:20.523Z,43.88
2023-05-02T12:08:49.076Z,43.79
2023-05-02T12:11:17.235Z,43.57
2023-05-02T12:13:50.509Z,42.69
2023-05-02T12:16:19.192Z,42.97
2023-05-02T12:18:48.124Z,42.78
2023-05-02T12:21:17.853Z,42.81
2023-05-02T12:23:45.827Z,42.15
2023-05-02T12:26:21.821Z,42.00
2023-05-02T12:28:58.142Z,42.37
2023-05-02T12:31:28.003Z,42.22
2023-05-02T12:33:57.869Z,42.03
2023-05-02T12:36:25.992Z,42.58
2023-05-02T12:38:57.193Z,42.33
2023-05-02T12:41:35.731Z,42.54
2023-05-02T12:44:04.431Z,42.41
2023-05-02T12:46:32.350Z,41.59
2023-05-02T12:49:12.047Z,42.15
2023-05-02T12:51:40.989Z,41.77
2023-05-02T12:54:08.605Z,41.69
2023-05-02T12:56:40.588Z,41.57
2023-05-02T12:59:09.420Z,41.52
2023-05-02T13:01:36.983Z,41.81
2023-05-02T13:04:05.505Z,40.87
2023-05-02T13:06:33.249Z,41.76
2023-05-02T13:09:01.750Z,41.98
2023-05-02T13:11:29.290Z,42.23
2023-05-02T13:13:56.839Z,41.38
2023-05-02T13:16:24.571Z,40.85
2023-05-02T13:18:52.264Z,39.35
2023-05-02T13:21:19.791Z,39.10
2023-05-02T13:23:51.825Z,39.10
2023-05-02T13:26:19.395Z,39.49
2023-05-02T13:28:46.930Z,39.74
2023-05-02T13:31:14.475Z,39.46
2023-05-02T13:33:42.007Z,39.43
2023-05-02T13:36:09.496Z,39.18
2023-05-02T13:38:37.002Z,38.40
2023-05-02T13:41:05.176Z,38.65
2023-05-02T13:43:32.685Z,38.83
2023-05-02T13:46:00.660Z,39.09
2023-05-02T13:48:28.205Z,38.36
2023-05-02T13:50:55.729Z,38.17
2023-05-02T13:53:23.228Z,37.44
2023-05-02T13:55:50.737Z,38.33
2023-05-02T13:58:18.716Z,37.20
2023-05-02T14:00:47.228Z,36.17
2023-05-02T14:03:14.901Z,35.79
2023-05-02T14:05:43.653Z,35.97
2023-05-02T14:08:12.305Z,34.97
2023-05-02T14:10:39.992Z,35.33
2023-05-02T14:13:07.485Z,35.54
2023-05-02T14:15:35.051Z,34.56
2023-05-02T14:18:02.767Z,35.04
2023-05-02T14:20:30.248Z,33.93
2023-05-02T14:22:57.748Z,34.15
2023-05-02T14:25:25.295Z,33.74
2023-05-02T14:27:52.823Z,34.48
2023-05-02T14:30:20.367Z,35.16
2023-05-02T14:32:47.944Z,34.30
2023-05-02T14:35:15.646Z,34.50
2023-05-02T14:37:44.992Z,34.43
2023-05-02T14:40:13.951Z,33.28
2023-05-02T14:42:42.080Z,33.39
2023-05-02T14:45:11.395Z,33.08
2023-05-02T14:47:38.972Z,33.02
2023-05-02T14:50:07.430Z,33.09
2023-05-02T14:52:35.012Z,32.65
2023-05-02T14:55:02.815Z,32.48
2023-05-02T14:57:30.832Z,33.02
2023-05-02T14:59:58.386Z,33.01
2023-05-02T15:02:26.369Z,32.50
2023-05-02T15:04:53.950Z,31.90
2023-05-02T15:07:21.733Z,31.28
2023-05-02T15:09:49.352Z,31.32
2023-05-02T15:12:16.864Z,30.41
2023-05-02T15:14:44.529Z,30.69
2023-05-02T15:17:12.096Z,30.20
2023-05-02T15:19:39.580Z,30.43
2023-05-02T15:22:07.127Z,30.62
2023-05-02T15:24:34.685Z,29.58
2023-05-02T15:27:03.622Z,29.77
2023-05-02T15:29:31.207Z,29.69
2023-05-02T15:31:58.704Z,30.13
2023-05-02T15:34:26.928Z,29.84
2023-05-02T15:36:56.047Z,30.68
2023-05-02T15:39:26.194Z,30.87
2023-05-02T15:41:53.792Z,30.30
2023-05-02T15:44:21.391Z,30.21
2023-05-02T15:46:49.373Z,29.32
2023-05-02T15:49:17.118Z,29.22
2023-05-02T15:51:44.788Z,29.72
2023-05-02T15:54:12.390Z,29.66
2023-05-02T15:56:39.880Z,29.87
2023-05-02T15:59:07.405Z,29.58
2023-05-02T16:01:34.980Z,29.67
2023-05-02T16:04:02.482Z,28.95
2023-05-02T16:06:30.561Z,29.06
2023-05-02T16:08:58.154Z,29.67
2023-05-02T16:11:25.819Z,29.46
2023-05-02T16:13:53.423Z,28.68
2023-05-02T16:16:21.024Z,29.02
2023-05-02T16:18:48.506Z,28.67
2023-05-02T16:21:16.927Z,29.36
2023-05-02T16:23:44.479Z,29.36
2023-05-02T16:26:12.025Z,29.44
2023-05-02T16:28:39.658Z,28.79
2023-05-02T16:31:11.008Z,28.95
2023-05-02T16:33:39.218Z,29.10
2023-05-02T16:36:07.440Z,29.22
2023-05-02T16:38:36.511Z,29.41
2023-05-02T16:41:06.845Z,29.42
2023-05-02T16:43:34.800Z,29.07
2023-05-02T16:46:05.827Z,29.65
2023-05-02T16:48:34.369Z,30.33
2023-05-02T16:51:03.972Z,30.27
2023-05-02T16:53:32.156Z,30.38
2023-05-02T16:56:00.047Z,30.56
2023-05-02T16:58:29.029Z,30.42
2023-05-02T17:00:58.552Z,29.70
2023-05-02T17:03:26.131Z,28.98
2023-05-02T17:05:53.666Z,28.71
2023-05-02T17:08:22.035Z,28.49
2023-05-02T17:10:50.372Z,29.21
2023-05-02T17:13:17.873Z,29.96
2023-05-02T17:15:45.464Z,30.21
2023-05-02T17:18:12.966Z,30.49
2023-05-02T17:20:41.301Z,31.01
2023-05-02T17:23:09.764Z,31.63
2023-05-02T17:25:38.191Z,32.23
2023-05-02T17:28:06.266Z,32.43
2023-05-02T17:30:33.943Z,32.88
2023-05-02T17:33:01.789Z,33.43
2023-05-02T17:35:29.408Z,33.98
2023-05-02T17:37:57.217Z,34.22
2023-05-02T17:40:24.787Z,34.76
2023-05-02T17:42:52.333Z,34.35
2023-05-02T17:45:19.977Z,34.77
2023-05-02T17:47:47.620Z,35.26
2023-05-02T17:50:15.276Z,35.30
2023-05-02T17:52:42.846Z,35.11
2023-05-02T17:55:10.588Z,34.91
2023-05-02T17:57:38.069Z,34.88
2023-05-02T18:00:07.984Z,34.84
2023-05-02T18:02:39.758Z,35.20
2023-05-02T18:05:07.990Z,34.94
2023-05-02T18:07:35.532Z,35.24
2023-05-02T18:10:05.009Z,35.36
2023-05-02T18:12:33.558Z,35.26
2023-05-02T18:15:02.765Z,35.03
2023-05-02T18:17:31.684Z,35.15
2023-05-02T18:19:59.309Z,35.31
2023-05-02T18:22:27.833Z,35.40
2023-05-02T18:24:55.954Z,35.57
2023-05-02T18:27:23.564Z,35.61
2023-05-02T18:29:51.427Z,35.70
2023-05-02T18:32:18.917Z,35.75
2023-05-02T18:34:46.451Z,36.12
2023-05-02T18:37:14.038Z,36.01
2023-05-02T18:39:41.639Z,36.20
2023-05-02T18:42:10.575Z,36.19
2023-05-02T18:44:38.091Z,36.12
2023-05-02T18:47:05.589Z,36.01
2023-05-02T18:49:33.095Z,36.12
2023-05-02T18:52:00.586Z,36.16
2023-05-02T18:54:29.184Z,36.10
2023-05-02T18:56:56.678Z,36.43
2023-05-02T18:59:24.239Z,36.37
2023-05-02T19:01:52.107Z,36.52
2023-05-02T19:04:19.920Z,36.70
2023-05-02T19:06:47.720Z,37.05
2023-05-02T19:09:15.717Z,37.09
2023-05-02T19:11:43.230Z,37.34
2023-05-02T19:14:11.791Z,37.65
2023-05-02T19:16:41.980Z,37.89
2023-05-02T19:19:09.545Z,38.03
2023-05-02T19:21:37.045Z,38.05
2023-05-02T19:24:04.901Z,38.26
2023-05-02T19:26:32.586Z,38.52
2023-05-02T19:29:00.117Z,38.55
2023-05-02T19:31:27.958Z,38.91
2023-05-02T19:33:55.696Z,39.03
2023-05-02T19:36:24.665Z,38.91
2023-05-02T19:38:53.941Z,39.25
2023-05-02T19:41:22.240Z,39.21
2023-05-02T19:43:50.418Z,39.55
2023-05-02T19:46:18.819Z,39.75
2023-05-02T19:48:46.361Z,40.12
2023-05-02T19:51:14.012Z,40.04
2023-05-02T19:53:41.576Z,40.29
2023-05-02T19:56:09.157Z,40.55
2023-05-02T19:58:36.703Z,40.48
2023-05-02T20:01:04.413Z,40.80
2023-05-02T20:03:32.241Z,40.48
2023-05-02T20:05:59.799Z,40.93
2023-05-02T20:08:28.024Z,40.83
2023-05-02T20:10:56.367Z,40.90
2023-05-02T20:13:23.930Z,40.94
2023-05-02T20:15:53.389Z,41.13
2023-05-02T20:18:21.118Z,40.95
2023-05-02T20:20:48.845Z,41.14
2023-05-02T20:23:16.549Z,41.29
2023-05-02T20:25:44.100Z,41.40
2023-05-02T20:28:11.674Z,41.42
2023-05-02T20:30:39.764Z,41.47
2023-05-02T20:33:15.467Z,41.69
2023-05-02T20:35:45.048Z,41.67
2023-05-02T20:38:12.550Z,41.71
2023-05-02T20:40:40.758Z,41.80
2023-05-02T20:43:08.964Z,42.00
2023-05-02T20:45:36.544Z,42.32
2023-05-02T20:48:04.362Z,42.11
2023-05-02T20:50:32.098Z,42.17
2023-05-02T20:52:59.595Z,42.28
2023-05-02T20:55:27.614Z,42.31
2023-05-02T20:57:55.298Z,42.37
2023-05-02T21:00:23.412Z,42.32
2023-05-02T21:02:51.306Z,42.26
2023-05-02T21:05:18.894Z,42.24
2023-05-02T21:07:46.392Z,42.54
2023-05-02T21:10:14.884Z,42.57
2023-05-02T21:12:42.494Z,42.67
2023-05-02T21:15:10.258Z,42.71
2023-05-02T21:17:39.741Z,42.81
2023-05-02T21:20:09.696Z,42.77
2023-05-02T21:22:37.178Z,42.86
2023-05-02T21:25:05.451Z,42.86
2023-05-02T21:27:32.990Z,42.83
2023-05-02T21:30:00.953Z,42.95
2023-05-02T21:32:29.433Z,43.15
2023-05-02T21:34:56.969Z,43.28
2023-05-02T21:37:24.474Z,43.24
2023-05-02T21:39:52.179Z,43.35
2023-05-02T21:42:19.872Z,43.39
2023-05-02T21:44:47.413Z,43.59
2023-05-02T21:47:15.066Z,43.57
2023-05-02T21:49:42.649Z,43.84
2023-05-02T21:52:10.203Z,44.00
2023-05-02T21:54:37.777Z,44.08
2023-05-02T21:57:05.294Z,43.82
2023-05-02T21:59:32.817Z,43.78
2023-05-02T22:02:00.478Z,43.99
2023-05-02T22:04:28.095Z,44.26
2023-05-02T22:06:55.647Z,44.52
2023-05-02T22:09:23.235Z,44.42
2023-05-02T22:11:50.855Z,44.71
2023-05-02T22:14:18.354Z,44.68
2023-05-02T22:16:46.124Z,44.54
2023-05-02T22:19:17.567Z,44.71
2023-05-02T22:21:45.035Z,44.68
2023-05-02T22:24:12.588Z,44.78
2023-05-02T22:26:40.076Z,44.80
2023-05-02T22:29:07.654Z,44.70
2023-05-02T22:31:35.235Z,45.11
2023-05-02T22:34:02.795Z,45.32
2023-05-02T22:36:31.125Z,45.47
2023-05-02T22:38:58.657Z,45.49
2023-05-02T22:41:26.157Z,45.82
2023-05-02T22:43:53.789Z,46.21
2023-05-02T22:46:21.362Z,45.76
2023-05-02T22:48:49.157Z,45.86
2023-05-02T22:51:16.717Z,45.81
2023-05-02T22:53:44.206Z,46.14
2023-05-02T22:56:11.674Z,46.18
2023-05-02T22:58:39.198Z,46.00
2023-05-02T23:01:06.942Z,46.06
2023-05-02T23:03:34.823Z,46.16
2023-05-02T23:06:02.540Z,46.40
2023-05-02T23:08:30.151Z,46.10
2023-05-02T23:10:58.738Z,46.39
2023-05-02T23:13:26.379Z,46.41
2023-05-02T23:15:54.973Z,46.51
2023-05-02T23:18:23.308Z,46.59
2023-05-02T23:20:51.137Z,46.66
2023-05-02T23:23:18.666Z,46.44
2023-05-02T23:25:46.268Z,46.76
2023-05-02T23:28:13.831Z,46.92
2023-05-02T23:30:41.555Z,46.86
2023-05-02T23:33:09.295Z,47.05
2023-05-02T23:35:36.857Z,47.16
2023-05-02T23:38:10.323Z,47.19
2023-05-02T23:40:37.802Z,47.24
2023-05-02T23:43:07.348Z,47.39
2023-05-02T23:45:34.899Z,47.59
2023-05-02T23:48:02.509Z,47.78
2023-05-02T23:50:31.857Z,47.75
2023-05-02T23:52:59.407Z,47.94
2023-05-02T23:55:27.012Z,47.82
2023-05-02T23:57:54.552Z,48.10
